Time;durP1;ratioP1;P1;durP2;ratioP2;P2;SDS_P1;SDS_P2;PMS_P1;PMS_P2;Temp;Humidity;BMP_temperature;BMP_pressure;BME280_temperature;BME280_humidity;BME280_pressure;Samples;Min_cycle;Max_cycle;Signal;HPM_P1;HPM_P2
2023/02/23 00:01:42;;;;;;;16.00;14.50;;;;;;;4.44;100.00;96626.28;5064449;28;20195;-69
2023/02/23 00:04:09;;;;;;;15.27;13.97;;;;;;;4.47;100.00;96617.31;5064614;28;20862;-70
2023/02/23 00:06:39;;;;;;;16.40;15.00;;;;;;;4.42;100.00;96625.63;5046126;28;20477;-68
2023/02/23 00:09:11;;;;;;;16.10;14.67;;;;;;;4.40;100.00;96616.28;5063198;28;20209;-69
2023/02/23 00:11:38;;;;;;;16.47;14.90;;;;;;;4.38;100.00;96613.00;5061073;28;20479;-68
2023/02/23 00:14:07;;;;;;;15.80;14.30;;;;;;;4.48;100.00;96626.81;5066074;28;20236;-69
2023/02/23 00:16:36;;;;;;;14.87;13.63;;;;;;;4.49;100.00;96615.34;5023081;28;21019;-69
2023/02/23 00:19:06;;;;;;;15.03;13.70;;;;;;;4.24;100.00;96625.72;5071043;28;20295;-68
2023/02/23 00:21:34;;;;;;;16.23;14.83;;;;;;;3.98;100.00;96629.25;5048223;28;20393;-69
2023/02/23 00:24:07;;;;;;;16.37;14.87;;;;;;;4.04;100.00;96618.13;5066914;28;20217;-69
2023/02/23 00:26:37;;;;;;;16.30;14.80;;;;;;;3.98;100.00;96628.41;5065503;28;20594;-69
2023/02/23 00:29:06;;;;;;;13.23;12.03;;;;;;;3.98;100.00;96621.38;5065497;28;20670;-68
2023/02/23 00:31:37;;;;;;;13.97;12.77;;;;;;;4.07;100.00;96631.91;5020374;28;20859;-69
2023/02/23 00:34:06;;;;;;;11.77;10.87;;;;;;;3.98;100.00;96626.63;5067673;28;20241;-70
2023/02/23 00:36:35;;;;;;;11.50;10.53;;;;;;;3.98;100.00;96621.38;5043760;28;20206;-69
2023/02/23 00:39:17;;;;;;;11.67;10.67;;;;;;;3.91;100.00;96626.41;5066442;28;20237;-68
2023/02/23 00:41:45;;;;;;;10.93;10.03;;;;;;;3.83;100.00;96631.59;5064362;28;20457;-67
2023/02/23 00:44:14;;;;;;;12.07;11.07;;;;;;;3.86;100.00;96627.84;5064979;28;20219;-67
2023/02/23 00:46:42;;;;;;;12.20;11.20;;;;;;;3.86;100.00;96620.81;5022410;28;20218;-69
2023/02/23 00:49:12;;;;;;;14.67;13.37;;;;;;;3.76;100.00;96633.19;5065977;28;20742;-70
2023/02/23 00:51:40;;;;;;;15.33;13.90;;;;;;;3.85;100.00;96639.31;5048465;28;20216;-69
2023/02/23 00:54:11;;;;;;;14.30;12.97;;;;;;;3.82;100.00;96640.44;5058708;28;20488;-68
2023/02/23 00:56:40;;;;;;;15.13;13.70;;;;;;;3.76;100.00;96639.25;5068936;28;20509;-69
2023/02/23 00:59:07;;;;;;;14.53;13.07;;;;;;;3.87;100.00;96634.72;5061164;28;20195;-68
2023/02/23 01:01:36;;;;;;;13.17;11.93;;;;;;;3.82;100.00;96645.69;5017248;28;20211;-69
2023/02/23 01:04:04;;;;;;;12.07;10.97;;;;;;;3.83;100.00;96644.72;5060393;28;20670;-69
2023/02/23 01:06:32;;;;;;;12.07;10.93;;;;;;;3.98;100.00;96647.59;5066255;28;20208;-70
2023/02/23 01:09:04;;;;;;;12.97;11.77;;;;;;;3.99;100.00;96643.16;5043719;28;20316;-68
2023/02/23 01:11:33;;;;;;;11.60;10.53;;;;;;;4.17;100.00;96643.91;5067363;28;20198;-70
2023/02/23 01:14:01;;;;;;;10.80;9.93;;;;;;;4.29;100.00;96646.25;5059185;28;20347;-69
2023/02/23 01:16:30;;;;;;;10.93;9.90;;;;;;;4.33;100.00;96651.00;5019600;28;20638;-69
2023/02/23 01:18:59;;;;;;;10.40;9.60;;;;;;;4.44;100.00;96646.47;5061483;28;20255;-69
2023/02/23 01:21:29;;;;;;;10.43;9.53;;;;;;;4.44;100.00;96649.09;5041832;28;20828;-69
2023/02/23 01:23:57;;;;;;;10.87;9.87;;;;;;;4.37;100.00;96630.53;5043656;28;20303;-68
2023/02/23 01:26:27;;;;;;;12.33;11.23;;;;;;;4.48;100.00;96645.19;5064090;28;20557;-69
2023/02/23 01:28:57;;;;;;;12.23;11.13;;;;;;;4.43;100.00;96629.09;5064012;28;20271;-68
2023/02/23 01:31:25;;;;;;;11.77;10.77;;;;;;;4.52;100.00;96635.16;5062195;28;20213;-69
2023/02/23 01:33:56;;;;;;;12.23;11.13;;;;;;;4.49;100.00;96628.44;5015952;28;20239;-68
2023/02/23 01:36:24;;;;;;;13.37;12.17;;;;;;;4.51;100.00;96636.16;5064557;28;20191;-69
2023/02/23 01:38:54;;;;;;;13.87;12.67;;;;;;;4.40;100.00;96626.78;5043735;28;20291;-68
2023/02/23 01:41:21;;;;;;;13.70;12.50;;;;;;;4.47;100.00;96630.41;5065166;28;20663;-69
2023/02/23 01:43:58;;;;;;;13.10;12.00;;;;;;;4.49;100.00;96623.22;5064926;28;20330;-67
2023/02/23 01:46:26;;;;;;;12.40;11.23;;;;;;;4.50;100.00;96614.34;5063299;28;20201;-69
2023/02/23 01:48:55;;;;;;;12.20;11.10;;;;;;;4.44;100.00;96625.50;5018215;28;20217;-67
2023/02/23 01:51:24;;;;;;;12.77;11.57;;;;;;;4.30;100.00;96627.72;5056900;28;20210;-69
2023/02/23 01:53:56;;;;;;;12.73;11.63;;;;;;;4.17;100.00;96625.56;5049441;28;20222;-68
2023/02/23 01:56:25;;;;;;;12.27;11.27;;;;;;;4.14;100.00;96625.03;5061907;28;20210;-69
2023/02/23 01:58:56;;;;;;;12.40;11.27;;;;;;;4.06;100.00;96628.44;5064737;28;20205;-69
2023/02/23 02:01:24;;;;;;;10.90;10.07;;;;;;;4.11;100.00;96622.72;5063476;28;20202;-70
2023/02/23 02:03:55;;;;;;;12.00;10.93;;;;;;;4.22;100.00;96625.06;5023482;28;20295;-68
2023/02/23 02:06:27;;;;;;;11.60;10.50;;;;;;;4.12;100.00;96622.56;5065417;28;20222;-69
2023/02/23 02:08:58;;;;;;;11.43;10.43;;;;;;;4.16;100.00;96621.25;5045025;28;20689;-68
2023/02/23 02:11:29;;;;;;;12.27;11.27;;;;;;;4.11;100.00;96612.25;5063793;28;20224;-71
2023/02/23 02:14:01;;;;;;;11.50;10.43;;;;;;;4.11;100.00;96612.25;5064300;28;20782;-68
2023/02/23 02:16:42;;;;;;;11.20;10.30;;;;;;;4.12;100.00;96619.94;5062469;28;20298;-69
2023/02/23 02:19:57;;;;;;;11.87;10.97;;;;;;;4.18;100.00;96619.34;5017656;28;20218;-70
2023/02/23 02:22:53;;;;;;;12.10;11.00;;;;;;;4.23;100.00;96621.47;5059292;28;20580;-69
2023/02/23 02:25:39;;;;;;;11.60;10.70;;;;;;;4.13;100.00;96612.91;5048310;28;20285;-69
2023/02/23 02:28:31;;;;;;;12.27;11.30;;;;;;;4.19;100.00;96615.72;5059601;28;20217;-70
2023/02/23 02:31:31;;;;;;;12.50;11.50;;;;;;;4.20;100.00;96606.03;5055163;28;20671;-69
2023/02/23 02:34:41;;;;;;;13.37;12.20;;;;;;;4.21;100.00;96612.94;5017145;28;20218;-69
2023/02/23 02:37:20;;;;;;;13.67;12.40;;;;;;;4.26;100.00;96609.84;5057763;28;20495;-69
2023/02/23 02:39:53;;;;;;;13.57;12.37;;;;;;;4.10;100.00;96600.91;5057429;28;20228;-68
2023/02/23 02:42:27;;;;;;;13.43;12.20;;;;;;;4.28;100.00;96616.56;5045994;28;20604;-69
2023/02/23 02:45:00;;;;;;;13.40;12.20;;;;;;;4.25;100.00;96613.44;5055120;28;20218;-68
2023/02/23 02:47:33;;;;;;;12.73;11.67;;;;;;;4.23;100.00;96610.16;5064082;28;20198;-70
2023/02/23 02:50:05;;;;;;;12.40;11.20;;;;;;;4.28;100.00;96615.75;4998621;28;20441;-70
2023/02/23 02:52:39;;;;;;;12.57;11.57;;;;;;;4.32;100.00;96603.97;5058626;28;20575;-68
2023/02/23 02:55:11;;;;;;;13.13;11.87;;;;;;;4.33;100.00;96611.66;5058582;28;20859;-70
2023/02/23 02:57:39;;;;;;;12.63;11.53;;;;;;;4.25;100.00;96613.44;5049301;28;20498;-67
2023/02/23 04:18:29;;;;;;;10.87;9.87;;;;;;;3.21;100.00;96640.31;5064271;28;20198;-70
2023/02/23 04:20:57;;;;;;;11.70;10.67;;;;;;;3.16;100.00;96627.69;5055577;28;20211;-68
2023/02/23 04:23:26;;;;;;;11.70;10.63;;;;;;;3.15;100.00;96641.75;5015882;28;20638;-67
2023/02/23 04:25:54;;;;;;;10.47;9.47;;;;;;;3.00;100.00;96644.06;5062380;28;20198;-69
2023/02/23 04:28:23;;;;;;;11.50;10.43;;;;;;;2.89;100.00;96636.44;5059564;28;20202;-67
2023/02/23 04:30:51;;;;;;;10.70;9.67;;;;;;;2.98;100.00;96646.00;5064437;28;20962;-70
2023/02/23 04:33:21;;;;;;;10.47;9.60;;;;;;;2.99;100.00;96644.22;5062345;28;20219;-67
2023/02/23 04:35:49;;;;;;;10.87;9.63;;;;;;;2.97;100.00;96640.94;5064617;28;20252;-67
2023/02/23 04:38:17;;;;;;;11.57;10.67;;;;;;;2.98;100.00;96650.44;5025193;28;20210;-68
2023/02/23 04:40:44;;;;;;;10.70;9.87;;;;;;;2.95;100.00;96643.69;5057782;28;20285;-69
2023/02/23 04:43:12;;;;;;;10.97;10.07;;;;;;;2.94;100.00;96646.47;5060271;28;20214;-68
2023/02/23 04:45:40;;;;;;;11.53;10.63;;;;;;;2.92;100.00;96645.81;5057465;28;20260;-69
2023/02/23 04:48:08;;;;;;;10.23;9.43;;;;;;;2.88;100.00;96645.25;5057312;28;20511;-67
2023/02/23 04:50:37;;;;;;;10.63;9.53;;;;;;;2.88;100.00;96651.34;5056496;28;20210;-69
2023/02/23 04:53:05;;;;;;;10.23;9.33;;;;;;;2.93;100.00;96650.06;5059974;28;20220;-67
2023/02/23 04:55:33;;;;;;;10.37;9.47;;;;;;;2.84;100.00;96662.22;5013979;28;20227;-67
2023/02/23 04:58:01;;;;;;;10.13;9.23;;;;;;;2.75;100.00;96646.47;5057611;28;20213;-66
2023/02/23 05:00:30;;;;;;;11.50;10.50;;;;;;;2.70;100.00;96660.94;5057068;28;20195;-69
2023/02/23 05:02:57;;;;;;;10.63;9.83;;;;;;;2.81;100.00;96649.44;5060447;28;20218;-69
2023/02/23 05:05:25;;;;;;;10.63;9.83;;;;;;;2.85;100.00;96653.41;5057616;28;20509;-69
2023/02/23 05:07:54;;;;;;;11.20;10.30;;;;;;;2.96;100.00;96649.75;5057763;28;20214;-68
2023/02/23 05:10:22;;;;;;;11.67;10.57;;;;;;;3.01;100.00;96650.13;5017829;28;20208;-67
2023/02/23 05:12:50;;;;;;;12.37;11.20;;;;;;;3.06;100.00;96652.31;5059888;28;20220;-69
2023/02/23 05:15:18;;;;;;;11.63;10.63;;;;;;;3.13;100.00;96654.16;5058276;28;20206;-67
2023/02/23 05:17:46;;;;;;;12.43;11.17;;;;;;;3.16;100.00;96646.00;5057406;28;20297;-70
2023/02/23 05:20:15;;;;;;;11.97;10.87;;;;;;;3.12;100.00;96649.09;5064428;28;20294;-68
2023/02/23 05:22:42;;;;;;;12.30;11.20;;;;;;;3.01;100.00;96647.50;5064901;28;20600;-70
2023/02/23 05:25:11;;;;;;;11.60;10.60;;;;;;;3.00;100.00;96645.88;5067945;28;20301;-68
2023/02/23 05:27:39;;;;;;;11.47;10.57;;;;;;;3.10;100.00;96651.03;5022355;28;20214;-67
2023/02/23 05:30:08;;;;;;;11.20;10.20;;;;;;;3.11;100.00;96648.25;5068348;28;20395;-69
2023/02/23 05:32:36;;;;;;;11.90;10.83;;;;;;;3.12;100.00;96647.28;5066311;28;20837;-70
2023/02/23 05:35:04;;;;;;;13.17;11.97;;;;;;;3.16;100.00;96643.38;5065054;28;20828;-68
2023/02/23 05:37:32;;;;;;;12.63;11.53;;;;;;;3.22;100.00;96649.00;5046995;28;20245;-68
2023/02/23 05:40:00;;;;;;;14.10;12.80;;;;;;;3.22;100.00;96646.38;5070028;28;20395;-70
2023/02/23 05:42:29;;;;;;;12.97;11.90;;;;;;;3.29;100.00;96650.88;5019431;28;20276;-69
2023/02/23 05:44:56;;;;;;;14.00;12.90;;;;;;;3.33;100.00;96654.00;5061876;28;20241;-70
2023/02/23 05:47:24;;;;;;;14.33;12.93;;;;;;;3.35;100.00;96653.84;5061727;28;20195;-70
2023/02/23 05:49:51;;;;;;;19.20;17.33;;;;;;;3.38;100.00;96657.00;5068850;28;20217;-70
2023/02/23 05:52:19;;;;;;;18.87;17.17;;;;;;;3.39;100.00;96657.81;5062822;28;20194;-68
2023/02/23 05:54:46;;;;;;;16.33;14.83;;;;;;;3.40;100.00;96657.66;5062547;28;20230;-69
2023/02/23 05:57:14;;;;;;;14.43;13.10;;;;;;;3.28;100.00;96667.56;5033933;28;20249;-68
2023/02/23 05:59:44;;;;;;;13.63;12.33;;;;;;;3.27;100.00;96659.88;5049409;28;20210;-70
2023/02/23 06:02:11;;;;;;;13.33;12.17;;;;;;;3.18;100.00;96665.00;5063335;28;20214;-68
2023/02/23 06:04:39;;;;;;;13.83;12.53;;;;;;;3.15;100.00;96667.91;5063225;28;20317;-70
2023/02/23 06:07:06;;;;;;;12.67;11.57;;;;;;;3.15;100.00;96681.00;5061729;28;20210;-69
2023/02/23 06:09:35;;;;;;;12.33;11.23;;;;;;;3.19;100.00;96677.13;5065362;28;20198;-70
2023/02/23 06:12:02;;;;;;;13.07;11.77;;;;;;;3.20;100.00;96680.56;5066241;28;20202;-69
2023/02/23 06:14:31;;;;;;;11.83;10.73;;;;;;;3.17;100.00;96673.81;5020073;28;20218;-70
2023/02/23 06:17:00;;;;;;;13.37;12.17;;;;;;;3.19;100.00;96674.50;5047004;28;20788;-70
2023/02/23 06:19:28;;;;;;;12.93;11.80;;;;;;;3.13;100.00;96679.53;5058480;28;20737;-68
2023/02/23 06:21:56;;;;;;;11.67;10.77;;;;;;;3.22;100.00;96680.41;5044408;28;20685;-71
2023/02/23 06:24:23;;;;;;;12.43;11.33;;;;;;;3.25;100.00;96685.38;5046215;28;20231;-70
2023/02/23 06:26:51;;;;;;;11.40;10.50;;;;;;;3.21;100.00;96690.06;5062663;28;20202;-70
2023/02/23 06:29:20;;;;;;;13.03;11.90;;;;;;;3.24;100.00;96688.97;5027126;28;20195;-69
2023/02/23 06:31:48;;;;;;;11.37;10.23;;;;;;;3.31;100.00;96697.84;5064384;28;20194;-71
2023/02/23 06:34:17;;;;;;;13.00;11.67;;;;;;;3.30;100.00;96694.41;5061087;28;20230;-69
2023/02/23 06:36:45;;;;;;;12.53;11.43;;;;;;;3.37;100.00;96693.81;5047952;28;20597;-71
2023/02/23 06:39:13;;;;;;;12.83;11.80;;;;;;;3.42;100.00;96691.56;5059187;28;20202;-69
2023/02/23 06:41:40;;;;;;;13.47;12.20;;;;;;;3.47;100.00;96692.75;5058601;28;20293;-71
2023/02/23 06:44:08;;;;;;;13.03;12.03;;;;;;;3.44;100.00;96689.63;5066221;28;20379;-69
2023/02/23 06:46:36;;;;;;;13.67;12.60;;;;;;;3.51;100.00;96695.06;5022754;28;20238;-70
2023/02/23 06:49:04;;;;;;;13.00;11.87;;;;;;;3.38;100.00;96695.44;5061758;28;20549;-69
2023/02/23 06:51:33;;;;;;;13.97;12.63;;;;;;;3.30;100.00;96702.25;5061948;28;20494;-69
2023/02/23 06:54:01;;;;;;;14.43;12.77;;;;;;;3.25;100.00;96690.63;5047081;28;20498;-70
2023/02/23 06:56:28;;;;;;;13.90;12.63;;;;;;;3.31;100.00;96703.09;5044617;28;20286;-69
2023/02/23 06:58:56;;;;;;;14.37;13.07;;;;;;;3.38;100.00;96701.53;5066459;28;20195;-70
2023/02/23 07:01:23;;;;;;;14.53;13.30;;;;;;;3.50;100.00;96704.72;5015506;28;20422;-70
2023/02/23 07:03:51;;;;;;;15.13;13.83;;;;;;;3.59;100.00;96702.97;5063687;28;20225;-70
2023/02/23 07:06:18;;;;;;;15.93;14.53;;;;;;;3.65;100.00;96705.03;5058418;28;20281;-69
2023/02/23 07:08:47;;;;;;;17.23;15.73;;;;;;;3.72;100.00;96708.66;5046723;28;20755;-70
2023/02/23 07:11:17;;;;;;;16.57;15.07;;;;;;;3.75;100.00;96705.75;5054773;28;20202;-69
2023/02/23 07:13:45;;;;;;;16.43;14.93;;;;;;;3.83;100.00;96706.78;5060370;28;21049;-70
2023/02/23 07:16:15;;;;;;;16.70;14.97;;;;;;;3.88;100.00;96715.00;5042966;28;20278;-69
2023/02/23 07:18:42;;;;;;;18.70;16.77;;;;;;;3.86;100.00;96707.31;5052484;28;20214;-70
2023/02/23 07:21:10;;;;;;;16.20;14.70;;;;;;;3.93;100.00;96712.72;5065493;28;20768;-69
2023/02/23 07:23:38;;;;;;;16.20;14.60;;;;;;;3.91;100.00;96712.06;5045963;28;21664;-69
2023/02/23 07:26:08;;;;;;;16.17;14.67;;;;;;;3.96;100.00;96724.72;5063190;28;20198;-70
2023/02/23 07:28:37;;;;;;;15.43;14.13;;;;;;;4.13;100.00;96729.09;5050835;28;20432;-71
2023/02/23 07:31:05;;;;;;;16.07;14.43;;;;;;;4.14;100.00;96719.44;5063257;28;20347;-69
2023/02/23 07:33:32;;;;;;;16.93;15.23;;;;;;;4.17;100.00;96725.19;5020168;28;20226;-70
2023/02/23 07:36:00;;;;;;;17.87;16.17;;;;;;;4.31;100.00;96725.59;5068050;28;20629;-71
2023/02/23 07:38:28;;;;;;;16.80;15.20;;;;;;;4.29;100.00;96722.31;5058368;28;20222;-71
2023/02/23 07:40:56;;;;;;;15.57;14.17;;;;;;;4.32;100.00;96722.81;5047069;28;20212;-71
2023/02/23 07:43:25;;;;;;;15.57;14.07;;;;;;;4.38;100.00;96720.56;5046909;28;21037;-70
2023/02/23 07:45:52;;;;;;;16.00;14.60;;;;;;;4.29;100.00;96723.13;5063912;28;20602;-69
2023/02/23 07:48:21;;;;;;;15.90;14.50;;;;;;;4.43;100.00;96728.78;5018346;28;20249;-69
2023/02/23 07:50:48;;;;;;;16.30;14.90;;;;;;;4.49;100.00;96728.16;5067874;28;20202;-71
2023/02/23 07:53:16;;;;;;;16.60;15.23;;;;;;;4.41;100.00;96721.06;5062603;28;20227;-69
2023/02/23 07:55:44;;;;;;;17.50;15.80;;;;;;;4.42;100.00;96727.13;5047582;28;20816;-68
2023/02/23 07:58:12;;;;;;;16.03;14.40;;;;;;;4.46;100.00;96726.66;5047108;28;20265;-69
2023/02/23 08:00:41;;;;;;;17.63;15.83;;;;;;;4.53;100.00;96729.47;5064973;28;20198;-70
2023/02/23 08:03:09;;;;;;;16.10;14.70;;;;;;;4.60;100.00;96729.69;5061071;28;20714;-68
2023/02/23 08:05:38;;;;;;;16.67;15.27;;;;;;;4.70;100.00;96721.66;5016244;28;20225;-70
2023/02/23 08:08:06;;;;;;;15.83;14.43;;;;;;;4.74;100.00;96725.63;5061335;28;20733;-69
2023/02/23 08:10:34;;;;;;;17.20;15.50;;;;;;;4.85;100.00;96722.72;5047558;28;20275;-71
2023/02/23 08:13:01;;;;;;;16.87;15.47;;;;;;;5.02;100.00;96733.25;5065636;28;20229;-70
2023/02/23 08:15:30;;;;;;;17.50;15.83;;;;;;;4.90;100.00;96723.06;5046862;28;20661;-71
2023/02/23 08:17:59;;;;;;;16.50;15.13;;;;;;;4.97;100.00;96725.03;5065360;28;20225;-70
2023/02/23 08:20:27;;;;;;;16.33;14.90;;;;;;;5.03;100.00;96724.41;5015316;28;20509;-69
2023/02/23 08:22:55;;;;;;;15.57;14.17;;;;;;;5.17;100.00;96720.31;5064018;28;20256;-68
2023/02/23 08:25:23;;;;;;;15.80;14.43;;;;;;;5.25;100.00;96722.97;5064487;28;20495;-68
2023/02/23 08:27:52;;;;;;;16.10;14.47;;;;;;;5.16;100.00;96721.31;5043766;28;20289;-68
2023/02/23 08:30:20;;;;;;;18.23;16.37;;;;;;;5.22;100.00;96704.91;5047377;28;20301;-67
2023/02/23 08:32:49;;;;;;;16.53;15.03;;;;;;;5.42;100.00;96715.94;5067044;28;20682;-68
2023/02/23 08:35:21;;;;;;;15.47;14.20;;;;;;;5.68;100.00;96717.59;5028168;28;20581;-67
2023/02/23 08:37:49;;;;;;;15.37;13.90;;;;;;;5.71;100.00;96717.25;5062513;28;20488;-66
2023/02/23 08:40:17;;;;;;;15.50;14.10;;;;;;;5.99;100.00;96710.81;5062051;28;20206;-67
2023/02/23 08:42:44;;;;;;;14.83;13.53;;;;;;;5.95;100.00;96718.25;5041065;28;20207;-69
2023/02/23 08:45:12;;;;;;;15.20;13.90;;;;;;;6.04;100.00;96719.91;5046735;28;20228;-67
2023/02/23 08:47:40;;;;;;;14.80;13.27;;;;;;;5.97;100.00;96712.81;5058629;28;20321;-68
2023/02/23 08:50:09;;;;;;;14.33;13.13;;;;;;;6.23;100.00;96717.88;5062110;28;20297;-67
2023/02/23 08:52:39;;;;;;;25.10;22.47;;;;;;;6.36;100.00;96712.09;5015707;28;20214;-68
2023/02/23 08:55:09;;;;;;;18.37;16.57;;;;;;;6.28;100.00;96720.84;5068149;28;20226;-67
2023/02/23 08:57:37;;;;;;;15.43;13.93;;;;;;;6.40;100.00;96717.84;5045908;28;20322;-68
2023/02/23 09:00:12;;;;;;;14.47;12.97;;;;;;;6.18;100.00;96714.94;5053609;28;20364;-67
2023/02/23 09:02:40;;;;;;;14.73;13.43;;;;;;;6.20;100.00;96715.59;5066083;28;20206;-67
2023/02/23 09:05:09;;;;;;;14.53;13.13;;;;;;;6.39;100.00;96719.66;5070904;28;20207;-67
2023/02/23 09:07:39;;;;;;;15.37;14.00;;;;;;;6.73;100.00;96715.91;5023337;28;20420;-66
2023/02/23 09:10:08;;;;;;;16.23;14.73;;;;;;;6.56;100.00;96712.53;5068995;28;20213;-67
2023/02/23 09:12:36;;;;;;;14.77;13.47;;;;;;;6.57;100.00;96719.44;5066597;28;20296;-69
2023/02/23 09:15:04;;;;;;;15.73;14.33;;;;;;;6.51;100.00;96717.50;5049803;28;20597;-68
2023/02/23 09:17:32;;;;;;;15.60;14.10;;;;;;;6.61;100.00;96715.47;5050253;28;20437;-68
2023/02/23 09:19:59;;;;;;;15.70;14.30;;;;;;;6.57;100.00;96714.16;5069464;28;20206;-68
2023/02/23 09:22:27;;;;;;;15.20;13.80;;;;;;;6.80;100.00;96705.53;5018689;28;20323;-68
2023/02/23 09:24:56;;;;;;;16.40;14.67;;;;;;;6.67;100.00;96713.97;5067304;28;20269;-68
2023/02/23 09:27:23;;;;;;;15.80;14.23;;;;;;;7.08;100.00;96718.25;5064115;28;20503;-68
2023/02/23 09:29:51;;;;;;;15.83;14.43;;;;;;;7.18;100.00;96721.47;5048071;28;20682;-69
2023/02/23 09:32:19;;;;;;;16.93;15.30;;;;;;;7.31;100.00;96712.16;5048081;28;20210;-67
2023/02/23 09:34:47;;;;;;;17.40;15.70;;;;;;;7.26;100.00;96703.97;5065836;28;20810;-69
2023/02/23 09:37:15;;;;;;;16.87;15.47;;;;;;;7.61;100.00;96713.13;5035623;28;20210;-68
2023/02/23 09:39:44;;;;;;;16.13;14.73;;;;;;;7.50;100.00;96711.72;5052506;28;20309;-67
2023/02/23 09:42:23;;;;;;;17.57;15.87;;;;;;;7.49;100.00;96717.16;5065950;28;20263;-68
2023/02/23 09:44:58;;;;;;;18.37;16.67;;;;;;;7.46;100.00;96707.78;5050725;28;20233;-69
2023/02/23 09:47:37;;;;;;;17.90;16.03;;;;;;;7.45;100.00;96708.78;5045428;28;20209;-69
2023/02/23 09:50:14;;;;;;;17.93;16.37;;;;;;;7.43;100.00;96712.59;5064366;28;20206;-68
2023/02/23 09:52:45;;;;;;;18.50;16.70;;;;;;;7.46;100.00;96720.13;5062413;28;20201;-69
2023/02/23 09:55:14;;;;;;;24.50;18.07;;;;;;;7.53;100.00;96721.06;5021379;28;20217;-67
2023/02/23 09:57:44;;;;;;;20.50;18.40;;;;;;;7.55;100.00;96720.91;5069213;28;20564;-67
2023/02/23 10:00:22;;;;;;;21.00;19.00;;;;;;;7.84;100.00;96728.09;5047702;28;20228;-67
2023/02/23 10:03:10;;;;;;;22.07;19.80;;;;;;;7.96;100.00;96718.78;5054160;28;20213;-69
2023/02/23 10:05:42;;;;;;;20.70;18.60;;;;;;;8.07;100.00;96721.97;5069511;28;20384;-69
2023/02/23 10:08:20;;;;;;;20.20;18.20;;;;;;;8.33;100.00;96715.41;5062507;28;20731;-67
2023/02/23 10:10:49;;;;;;;19.73;17.83;;;;;;;8.59;100.00;96716.84;5028767;28;20206;-69
2023/02/23 10:13:26;;;;;;;20.23;18.40;;;;;;;8.66;100.00;96715.94;5052306;28;20229;-67
2023/02/23 10:15:56;;;;;;;20.27;18.23;;;;;;;8.88;100.00;96718.63;5053595;28;20198;-69
2023/02/23 10:18:31;;;;;;;20.33;18.33;;;;;;;8.81;100.00;96713.28;5048308;28;20198;-69
2023/02/23 10:21:16;;;;;;;21.80;19.60;;;;;;;8.72;100.00;96710.91;5066678;28;20202;-68
2023/02/23 10:23:48;;;;;;;30.23;25.83;;;;;;;8.72;100.00;96709.09;5064220;28;20632;-68
2023/02/23 10:26:18;;;;;;;30.57;27.27;;;;;;;8.74;100.00;96709.75;5025699;28;20655;-68
2023/02/23 10:28:48;;;;;;;23.10;20.67;;;;;;;8.94;100.00;96706.50;5070871;28;20887;-68
2023/02/23 10:31:24;;;;;;;20.97;18.73;;;;;;;9.07;100.00;96709.28;5041645;28;20202;-68
2023/02/23 10:33:54;;;;;;;19.17;17.40;;;;;;;8.84;100.00;96712.06;5053406;28;20222;-69
2023/02/23 10:36:31;;;;;;;22.40;18.43;;;;;;;8.82;100.00;96709.63;5063157;28;20198;-67
2023/02/23 10:38:59;;;;;;;20.47;18.63;;;;;;;8.97;100.00;96709.59;5068179;28;20228;-69
2023/02/23 10:41:27;;;;;;;21.70;19.70;;;;;;;9.04;100.00;96711.50;5023857;28;21270;-67
2023/02/23 10:43:56;;;;;;;20.77;18.67;;;;;;;8.98;100.00;96711.25;5069702;28;20222;-68
2023/02/23 10:46:39;;;;;;;20.40;18.40;;;;;;;9.05;100.00;96707.84;5043874;28;20445;-69
2023/02/23 10:49:10;;;;;;;22.33;19.50;;;;;;;9.20;100.00;96705.97;5051805;28;20210;-67
2023/02/23 10:51:39;;;;;;;21.73;19.73;;;;;;;8.94;100.00;96703.88;5060266;28;20844;-69
2023/02/23 10:54:42;;;;;;;22.10;19.47;;;;;;;8.76;100.00;96712.19;5061617;28;20227;-67
2023/02/23 10:57:15;;;;;;;22.40;20.07;;;;;;;9.00;100.00;96711.03;5024484;28;20232;-68
2023/02/23 11:00:04;;;;;;;22.37;20.17;;;;;;;9.26;100.00;96707.06;5064967;28;20226;-69
2023/02/23 11:02:32;;;;;;;22.00;19.80;;;;;;;9.18;100.00;96704.53;5043098;28;20333;-70
2023/02/23 11:05:01;;;;;;;24.20;21.13;;;;;;;8.88;100.00;96701.97;5050597;28;20218;-69
2023/02/23 11:07:30;;;;;;;31.03;26.53;;;;;;;9.14;100.00;96704.09;5057593;28;20832;-69
2023/02/23 11:09:58;;;;;;;22.60;20.33;;;;;;;9.20;100.00;96708.63;5066644;28;20585;-69
2023/02/23 11:12:28;;;;;;;23.23;20.90;;;;;;;9.33;100.00;96702.66;5017327;28;20297;-69
2023/02/23 11:14:57;;;;;;;24.50;21.97;;;;;;;9.03;100.00;96696.66;5067037;28;20272;-68
2023/02/23 11:17:29;;;;;;;23.20;21.00;;;;;;;9.08;100.00;96694.28;5041412;28;21541;-69
2023/02/23 11:20:01;;;;;;;24.00;21.50;;;;;;;9.20;100.00;96700.69;5049008;28;20222;-69
2023/02/23 11:22:34;;;;;;;23.37;21.17;;;;;;;9.17;100.00;96687.84;5061176;28;20199;-68
2023/02/23 11:25:05;;;;;;;23.03;20.83;;;;;;;9.12;100.00;96698.16;5063704;28;20658;-68
2023/02/23 11:27:33;;;;;;;24.07;21.70;;;;;;;9.25;100.00;96689.56;5018338;28;20595;-68
2023/02/23 11:30:05;;;;;;;23.53;21.10;;;;;;;9.42;100.00;96679.56;5066716;28;20200;-69
2023/02/23 11:32:42;;;;;;;23.87;21.47;;;;;;;9.37;100.00;96682.78;5061160;28;20404;-68
2023/02/23 11:35:26;;;;;;;23.60;21.30;;;;;;;9.13;100.00;96676.03;5048552;28;20206;-68
2023/02/23 11:37:55;;;;;;;24.63;22.00;;;;;;;9.13;100.00;96676.03;5062231;28;20217;-69
2023/02/23 11:40:25;;;;;;;23.37;20.83;;;;;;;9.10;100.00;96673.75;5060200;28;20230;-68
2023/02/23 11:42:54;;;;;;;22.97;20.63;;;;;;;9.44;100.00;96661.69;5065589;28;20198;-70
2023/02/23 11:45:26;;;;;;;24.20;21.70;;;;;;;9.53;100.00;96667.69;5010807;28;20210;-69
2023/02/23 11:47:55;;;;;;;23.27;20.90;;;;;;;9.74;100.00;96658.06;5064359;28;20670;-68
2023/02/23 11:50:27;;;;;;;23.47;21.07;;;;;;;9.54;100.00;96653.44;5042216;28;20264;-70
2023/02/23 11:53:01;;;;;;;24.60;22.00;;;;;;;9.77;100.00;96650.56;5045357;28;20666;-70
2023/02/23 11:55:29;;;;;;;23.27;20.83;;;;;;;10.04;100.00;96652.59;5064510;28;20201;-70
2023/02/23 11:58:08;;;;;;;22.63;20.27;;;;;;;10.52;100.00;96644.72;5066522;28;20203;-71
2023/02/23 12:00:37;;;;;;;25.63;23.07;;;;;;;11.07;100.00;96635.97;5018784;28;20244;-69
2023/02/23 12:03:05;;;;;;;23.97;21.37;;;;;;;11.33;100.00;96629.06;5060338;28;20610;-68
2023/02/23 12:05:34;;;;;;;26.57;24.03;;;;;;;11.25;100.00;96627.44;5046820;28;20210;-70
2023/02/23 12:08:04;;;;;;;27.43;24.20;;;;;;;11.23;97.83;96624.16;5051511;28;20202;-70
2023/02/23 12:10:36;;;;;;;27.70;24.90;;;;;;;11.02;96.70;96622.50;5065190;28;20206;-70
2023/02/23 12:13:12;;;;;;;27.37;24.57;;;;;;;10.93;97.42;96619.22;5067537;28;20272;-69
2023/02/23 12:15:44;;;;;;;26.00;23.40;;;;;;;11.05;95.99;96626.56;5018384;28;21628;-71
2023/02/23 12:18:22;;;;;;;26.73;23.63;;;;;;;10.94;98.19;96623.50;5043285;28;21679;-72
2023/02/23 12:20:53;;;;;;;27.83;24.00;;;;;;;10.74;96.87;96630.53;5046030;28;20226;-69
2023/02/23 12:23:24;;;;;;;27.27;24.57;;;;;;;10.89;96.92;96636.53;5057213;28;20766;-68
2023/02/23 12:25:55;;;;;;;26.20;23.43;;;;;;;10.94;94.94;96634.09;5043865;28;20321;-69
2023/02/23 12:28:26;;;;;;;26.57;22.57;;;;;;;11.39;94.29;96628.28;5060576;28;20545;-68
2023/02/23 12:30:58;;;;;;;27.43;22.60;;;;;;;11.48;90.64;96620.09;5035525;28;20207;-69
2023/02/23 12:33:32;;;;;;;29.67;23.73;;;;;;;11.37;90.09;96622.34;5047694;28;20223;-72
2023/02/23 12:36:04;;;;;;;24.97;22.47;;;;;;;11.13;89.85;96624.56;5047385;28;20208;-70
2023/02/23 12:38:40;;;;;;;25.17;22.23;;;;;;;11.26;89.97;96621.09;5061398;28;20203;-71
2023/02/23 12:41:11;;;;;;;25.90;22.30;;;;;;;11.48;89.36;96620.91;5060162;28;21034;-71
2023/02/23 12:43:48;;;;;;;24.83;22.23;;;;;;;11.61;90.96;96614.00;5060808;28;20253;-71
2023/02/23 12:46:20;;;;;;;25.50;22.67;;;;;;;11.47;87.92;96602.56;5058924;28;20206;-70
2023/02/23 12:48:55;;;;;;;28.60;22.23;;;;;;;11.58;88.65;96608.06;5016776;28;20300;-69
2023/02/23 12:51:28;;;;;;;27.70;22.60;;;;;;;11.67;87.31;96607.84;5058777;28;20202;-69